sensor_id;sensor_type;location;lat;lon;timestamp;temperature;humidity
37138;DHT22;26630;50.638;5.548;2022-09-17T07:24:04;12.70;99.90
37138;DHT22;26630;50.638;5.548;2022-09-17T07:26:32;12.20;99.90
37138;DHT22;26630;50.638;5.548;2022-09-17T07:28:59;12.20;99.90
37138;DHT22;26630;50.638;5.548;2022-09-17T07:31:26;12.20;99.90
37138;DHT22;26630;50.638;5.548;2022-09-17T07:33:53;12.20;99.90
37138;DHT22;26630;50.638;5.548;2022-09-17T07:36:20;12.20;99.90
37138;DHT22;26630;50.638;5.548;2022-09-17T07:38:47;12.30;99.90
37138;DHT22;26630;50.638;5.548;2022-09-17T07:41:15;12.30;99.90
37138;DHT22;26630;50.638;5.548;2022-09-17T07:43:42;12.30;99.90
37138;DHT22;26630;50.638;5.548;2022-09-17T07:46:13;12.40;99.90
37138;DHT22;26630;50.638;5.548;2022-09-17T07:48:41;12.40;99.90
37138;DHT22;26630;50.638;5.548;2022-09-17T07:51:13;12.40;99.90
37138;DHT22;26630;50.638;5.548;2022-09-17T07:53:40;12.40;99.90
37138;DHT22;26630;50.638;5.548;2022-09-17T07:56:07;12.40;99.90
37138;DHT22;26630;50.638;5.548;2022-09-17T07:58:37;12.50;99.90
37138;DHT22;26630;50.638;5.548;2022-09-17T08:01:08;12.50;99.90
37138;DHT22;26630;50.638;5.548;2022-09-17T08:03:36;12.50;99.90
37138;DHT22;26630;50.638;5.548;2022-09-17T08:06:04;12.50;99.90
37138;DHT22;26630;50.638;5.548;2022-09-17T08:08:32;12.50;99.90
37138;DHT22;26630;50.638;5.548;2022-09-17T08:11:04;12.50;99.90
37138;DHT22;26630;50.638;5.548;2022-09-17T08:13:32;12.50;99.90
37138;DHT22;26630;50.638;5.548;2022-09-17T08:16:00;12.50;99.90
37138;DHT22;26630;50.638;5.548;2022-09-17T08:18:27;12.50;99.90
37138;DHT22;26630;50.638;5.548;2022-09-17T08:20:59;12.60;99.90
37138;DHT22;26630;50.638;5.548;2022-09-17T08:23:26;12.60;99.90
37138;DHT22;26630;50.638;5.548;2022-09-17T08:25:57;12.60;99.90
37138;DHT22;26630;50.638;5.548;2022-09-17T08:28:25;12.60;99.90
37138;DHT22;26630;50.638;5.548;2022-09-17T08:30:52;12.60;99.90
37138;DHT22;26630;50.638;5.548;2022-09-17T08:33:20;12.60;99.90
37138;DHT22;26630;50.638;5.548;2022-09-17T08:35:53;12.60;99.90
37138;DHT22;26630;50.638;5.548;2022-09-17T08:38:21;12.60;99.90
37138;DHT22;26630;50.638;5.548;2022-09-17T08:46:15;12.60;99.90
37138;DHT22;26630;50.638;5.548;2022-09-17T08:48:44;12.60;99.90
37138;DHT22;26630;50.638;5.548;2022-09-17T08:51:16;12.60;99.90
37138;DHT22;26630;50.638;5.548;2022-09-17T08:54:09;12.60;99.90
37138;DHT22;26630;50.638;5.548;2022-09-17T08:56:41;12.60;99.90
37138;DHT22;26630;50.638;5.548;2022-09-17T08:59:28;12.60;99.90
37138;DHT22;26630;50.638;5.548;2022-09-17T09:01:59;12.60;99.90
37138;DHT22;26630;50.638;5.548;2022-09-17T09:04:33;12.60;99.90
37138;DHT22;26630;50.638;5.548;2022-09-17T09:07:12;12.60;99.90
37138;DHT22;26630;50.638;5.548;2022-09-17T09:09:42;12.60;99.90
37138;DHT22;26630;50.638;5.548;2022-09-17T09:12:12;12.70;99.90
37138;DHT22;26630;50.638;5.548;2022-09-17T09:14:50;12.60;99.90
37138;DHT22;26630;50.638;5.548;2022-09-17T09:17:20;12.70;99.90
37138;DHT22;26630;50.638;5.548;2022-09-17T09:19:48;12.70;99.90
37138;DHT22;26630;50.638;5.548;2022-09-17T09:22:29;12.70;99.90
37138;DHT22;26630;50.638;5.548;2022-09-17T09:27:46;12.70;99.90
37138;DHT22;26630;50.638;5.548;2022-09-17T09:30:20;12.70;99.90
37138;DHT22;26630;50.638;5.548;2022-09-17T09:32:53;12.70;99.90
37138;DHT22;26630;50.638;5.548;2022-09-17T09:35:23;12.70;99.90
37138;DHT22;26630;50.638;5.548;2022-09-17T09:43:40;12.80;99.90
37138;DHT22;26630;50.638;5.548;2022-09-17T09:46:34;12.80;99.90
37138;DHT22;26630;50.638;5.548;2022-09-17T09:57:32;12.80;99.90
37138;DHT22;26630;50.638;5.548;2022-09-17T10:02:41;12.80;99.90
37138;DHT22;26630;50.638;5.548;2022-09-17T10:05:09;12.80;99.90
37138;DHT22;26630;50.638;5.548;2022-09-17T10:07:42;12.80;99.90
37138;DHT22;26630;50.638;5.548;2022-09-17T10:10:10;12.80;99.90
37138;DHT22;26630;50.638;5.548;2022-09-17T10:12:37;12.90;99.90
37138;DHT22;26630;50.638;5.548;2022-09-17T10:15:22;12.90;99.90
37138;DHT22;26630;50.638;5.548;2022-09-17T10:18:01;12.90;99.90
37138;DHT22;26630;50.638;5.548;2022-09-17T10:20:36;12.90;99.90
37138;DHT22;26630;50.638;5.548;2022-09-17T10:23:14;12.90;99.90
37138;DHT22;26630;50.638;5.548;2022-09-17T10:25:41;12.90;99.90
37138;DHT22;26630;50.638;5.548;2022-09-17T10:30:58;12.90;99.90
37138;DHT22;26630;50.638;5.548;2022-09-17T10:33:31;12.90;99.90
37138;DHT22;26630;50.638;5.548;2022-09-17T10:35:59;12.90;99.90
37138;DHT22;26630;50.638;5.548;2022-09-17T10:43:43;12.90;99.90
37138;DHT22;26630;50.638;5.548;2022-09-17T10:46:13;12.90;99.90
37138;DHT22;26630;50.638;5.548;2022-09-17T10:48:42;12.90;99.90
37138;DHT22;26630;50.638;5.548;2022-09-17T10:51:10;12.90;99.90
37138;DHT22;26630;50.638;5.548;2022-09-17T10:53:53;12.90;99.90
37138;DHT22;26630;50.638;5.548;2022-09-17T10:56:22;12.90;99.90
37138;DHT22;26630;50.638;5.548;2022-09-17T10:58:55;12.90;99.90
37138;DHT22;26630;50.638;5.548;2022-09-17T11:01:31;12.90;99.90
37138;DHT22;26630;50.638;5.548;2022-09-17T11:04:10;12.90;99.90
37138;DHT22;26630;50.638;5.548;2022-09-17T11:17:20;13.00;99.90
37138;DHT22;26630;50.638;5.548;2022-09-17T11:25:20;13.00;99.90
37138;DHT22;26630;50.638;5.548;2022-09-17T11:30:16;13.10;99.90
37138;DHT22;26630;50.638;5.548;2022-09-17T11:32:52;13.00;99.90
37138;DHT22;26630;50.638;5.548;2022-09-17T11:35:30;13.10;99.90
37138;DHT22;26630;50.638;5.548;2022-09-17T11:43:34;13.00;99.90
37138;DHT22;26630;50.638;5.548;2022-09-17T11:46:17;13.10;99.90
37138;DHT22;26630;50.638;5.548;2022-09-17T11:48:54;13.00;99.90
37138;DHT22;26630;50.638;5.548;2022-09-17T11:56:53;13.00;99.90
37138;DHT22;26630;50.638;5.548;2022-09-17T11:59:29;13.00;99.90
37138;DHT22;26630;50.638;5.548;2022-09-17T12:02:03;13.00;99.90
37138;DHT22;26630;50.638;5.548;2022-09-17T12:07:07;12.90;99.90
37138;DHT22;26630;50.638;5.548;2022-09-17T12:09:38;13.00;99.90
37138;DHT22;26630;50.638;5.548;2022-09-17T12:12:09;13.00;99.90
37138;DHT22;26630;50.638;5.548;2022-09-17T12:15:02;13.00;99.90
37138;DHT22;26630;50.638;5.548;2022-09-17T12:17:38;13.00;99.90
37138;DHT22;26630;50.638;5.548;2022-09-17T12:20:15;13.10;99.90
37138;DHT22;26630;50.638;5.548;2022-09-17T12:22:45;13.10;99.90
37138;DHT22;26630;50.638;5.548;2022-09-17T12:25:14;13.10;99.90
37138;DHT22;26630;50.638;5.548;2022-09-17T12:28:03;13.10;99.90
37138;DHT22;26630;50.638;5.548;2022-09-17T12:30:43;13.10;99.90
37138;DHT22;26630;50.638;5.548;2022-09-17T12:35:58;13.10;99.90
37138;DHT22;26630;50.638;5.548;2022-09-17T12:44:11;13.20;99.90
37138;DHT22;26630;50.638;5.548;2022-09-17T12:46:49;13.20;99.90
37138;DHT22;26630;50.638;5.548;2022-09-17T12:49:31;13.30;99.90
37138;DHT22;26630;50.638;5.548;2022-09-17T12:59:48;13.30;99.90
37138;DHT22;26630;50.638;5.548;2022-09-17T13:02:18;13.20;99.90
37138;DHT22;26630;50.638;5.548;2022-09-17T13:13:11;13.20;99.90
37138;DHT22;26630;50.638;5.548;2022-09-17T13:21:05;13.20;99.90
37138;DHT22;26630;50.638;5.548;2022-09-17T13:23:42;13.20;99.90
37138;DHT22;26630;50.638;5.548;2022-09-17T13:26:10;13.20;99.90
37138;DHT22;26630;50.638;5.548;2022-09-17T13:28:43;13.20;99.90
37138;DHT22;26630;50.638;5.548;2022-09-17T13:42:01;13.20;99.90
37138;DHT22;26630;50.638;5.548;2022-09-17T13:44:32;13.20;99.90
37138;DHT22;26630;50.638;5.548;2022-09-17T13:47:10;13.20;99.90
37138;DHT22;26630;50.638;5.548;2022-09-17T13:49:52;13.20;99.90
37138;DHT22;26630;50.638;5.548;2022-09-17T13:52:27;13.20;99.90
37138;DHT22;26630;50.638;5.548;2022-09-17T13:54:56;13.30;99.90
37138;DHT22;26630;50.638;5.548;2022-09-17T13:57:27;13.30;99.90
37138;DHT22;26630;50.638;5.548;2022-09-17T13:59:56;13.30;99.90
37138;DHT22;26630;50.638;5.548;2022-09-17T14:07:44;13.40;99.90
37138;DHT22;26630;50.638;5.548;2022-09-17T14:17:59;13.40;99.90
37138;DHT22;26630;50.638;5.548;2022-09-17T14:20:26;13.50;99.90
37138;DHT22;26630;50.638;5.548;2022-09-17T14:23:00;13.50;99.90
37138;DHT22;26630;50.638;5.548;2022-09-17T14:25:31;13.50;99.90
37138;DHT22;26630;50.638;5.548;2022-09-17T14:28:02;13.50;99.90
37138;DHT22;26630;50.638;5.548;2022-09-17T14:30:30;13.50;99.90
37138;DHT22;26630;50.638;5.548;2022-09-17T14:33:06;13.40;99.90
37138;DHT22;26630;50.638;5.548;2022-09-17T14:38:02;13.40;99.90
37138;DHT22;26630;50.638;5.548;2022-09-17T14:40:34;13.40;99.90
37138;DHT22;26630;50.638;5.548;2022-09-17T14:43:01;13.40;99.90
37138;DHT22;26630;50.638;5.548;2022-09-17T14:45:32;13.40;99.90
37138;DHT22;26630;50.638;5.548;2022-09-17T14:50:45;13.40;99.90
37138;DHT22;26630;50.638;5.548;2022-09-17T14:53:16;13.40;99.90
37138;DHT22;26630;50.638;5.548;2022-09-17T14:55:55;13.40;99.90
37138;DHT22;26630;50.638;5.548;2022-09-17T14:58:31;13.40;99.90
37138;DHT22;26630;50.638;5.548;2022-09-17T15:01:00;13.50;99.90
37138;DHT22;26630;50.638;5.548;2022-09-17T15:03:34;13.50;99.90
37138;DHT22;26630;50.638;5.548;2022-09-17T15:06:01;13.50;99.90
37138;DHT22;26630;50.638;5.548;2022-09-17T15:08:36;13.50;99.90
37138;DHT22;26630;50.638;5.548;2022-09-17T15:11:16;13.50;99.90
37138;DHT22;26630;50.638;5.548;2022-09-17T15:13:49;13.50;99.90
37138;DHT22;26630;50.638;5.548;2022-09-17T15:16:22;13.50;99.90
37138;DHT22;26630;50.638;5.548;2022-09-17T15:19:01;13.60;99.90
37138;DHT22;26630;50.638;5.548;2022-09-17T15:26:33;13.60;99.90
37138;DHT22;26630;50.638;5.548;2022-09-17T15:29:05;13.60;99.90
37138;DHT22;26630;50.638;5.548;2022-09-17T15:31:35;13.60;99.90
37138;DHT22;26630;50.638;5.548;2022-09-17T15:34:03;13.60;99.90
37138;DHT22;26630;50.638;5.548;2022-09-17T15:36:30;13.60;99.90
37138;DHT22;26630;50.638;5.548;2022-09-17T15:38:57;13.60;99.90
37138;DHT22;26630;50.638;5.548;2022-09-17T15:41:29;13.60;99.90
37138;DHT22;26630;50.638;5.548;2022-09-17T15:44:06;13.60;99.90
37138;DHT22;26630;50.638;5.548;2022-09-17T15:46:54;13.60;99.90
37138;DHT22;26630;50.638;5.548;2022-09-17T15:49:32;13.60;99.90
37138;DHT22;26630;50.638;5.548;2022-09-17T15:54:50;13.60;99.90
37138;DHT22;26630;50.638;5.548;2022-09-17T15:57:17;13.50;99.90
37138;DHT22;26630;50.638;5.548;2022-09-17T15:59:44;13.50;99.90
37138;DHT22;26630;50.638;5.548;2022-09-17T16:02:23;13.60;99.90
37138;DHT22;26630;50.638;5.548;2022-09-17T16:04:56;13.50;99.90
37138;DHT22;26630;50.638;5.548;2022-09-17T16:07:38;13.50;99.90
37138;DHT22;26630;50.638;5.548;2022-09-17T16:10:06;13.50;99.90
37138;DHT22;26630;50.638;5.548;2022-09-17T16:12:34;13.60;99.90
37138;DHT22;26630;50.638;5.548;2022-09-17T16:15:02;13.60;99.90
37138;DHT22;26630;50.638;5.548;2022-09-17T16:17:33;13.60;99.90
37138;DHT22;26630;50.638;5.548;2022-09-17T16:20:11;13.60;99.90
37138;DHT22;26630;50.638;5.548;2022-09-17T16:22:38;13.60;99.90
37138;DHT22;26630;50.638;5.548;2022-09-17T16:25:06;13.60;99.90
37138;DHT22;26630;50.638;5.548;2022-09-17T16:27:42;13.60;99.90
37138;DHT22;26630;50.638;5.548;2022-09-17T16:30:12;13.60;99.90
37138;DHT22;26630;50.638;5.548;2022-09-17T16:32:39;13.50;99.90
37138;DHT22;26630;50.638;5.548;2022-09-17T16:35:16;13.60;99.90
37138;DHT22;26630;50.638;5.548;2022-09-17T16:37:46;13.60;99.90
37138;DHT22;26630;50.638;5.548;2022-09-17T16:40:14;13.60;99.90
37138;DHT22;26630;50.638;5.548;2022-09-17T16:42:41;13.60;99.90
37138;DHT22;26630;50.638;5.548;2022-09-17T16:45:09;13.60;99.90
37138;DHT22;26630;50.638;5.548;2022-09-17T16:47:39;13.60;99.90
37138;DHT22;26630;50.638;5.548;2022-09-17T16:50:07;13.50;99.90
37138;DHT22;26630;50.638;5.548;2022-09-17T16:52:34;13.60;99.90
37138;DHT22;26630;50.638;5.548;2022-09-17T16:55:02;13.60;99.90
37138;DHT22;26630;50.638;5.548;2022-09-17T16:57:29;13.50;99.90
37138;DHT22;26630;50.638;5.548;2022-09-17T16:59:57;13.50;99.90
37138;DHT22;26630;50.638;5.548;2022-09-17T17:02:24;13.50;99.90
37138;DHT22;26630;50.638;5.548;2022-09-17T17:04:51;13.50;99.90
37138;DHT22;26630;50.638;5.548;2022-09-17T17:07:19;13.50;99.90
37138;DHT22;26630;50.638;5.548;2022-09-17T17:09:46;13.50;99.90
37138;DHT22;26630;50.638;5.548;2022-09-17T17:12:13;13.50;99.90
37138;DHT22;26630;50.638;5.548;2022-09-17T17:14:40;13.50;99.90
37138;DHT22;26630;50.638;5.548;2022-09-17T17:17:10;13.50;99.90
37138;DHT22;26630;50.638;5.548;2022-09-17T17:19:37;13.50;99.90
37138;DHT22;26630;50.638;5.548;2022-09-17T17:22:04;13.50;99.90
37138;DHT22;26630;50.638;5.548;2022-09-17T17:24:32;13.50;99.90
37138;DHT22;26630;50.638;5.548;2022-09-17T17:26:59;13.50;99.90
37138;DHT22;26630;50.638;5.548;2022-09-17T17:29:27;13.50;99.90
37138;DHT22;26630;50.638;5.548;2022-09-17T17:31:54;13.50;99.90
37138;DHT22;26630;50.638;5.548;2022-09-17T17:34:21;13.40;99.90
37138;DHT22;26630;50.638;5.548;2022-09-17T17:36:48;13.40;99.90
37138;DHT22;26630;50.638;5.548;2022-09-17T17:39:15;13.40;99.90
37138;DHT22;26630;50.638;5.548;2022-09-17T17:41:42;13.40;99.90
37138;DHT22;26630;50.638;5.548;2022-09-17T17:44:17;13.40;99.90
37138;DHT22;26630;50.638;5.548;2022-09-17T17:46:44;13.40;99.90
37138;DHT22;26630;50.638;5.548;2022-09-17T17:49:11;13.30;99.90
37138;DHT22;26630;50.638;5.548;2022-09-17T17:51:38;13.30;99.90
37138;DHT22;26630;50.638;5.548;2022-09-17T17:54:05;13.30;99.90
37138;DHT22;26630;50.638;5.548;2022-09-17T17:56:34;13.30;99.90
37138;DHT22;26630;50.638;5.548;2022-09-17T17:59:01;13.30;99.90
37138;DHT22;26630;50.638;5.548;2022-09-17T18:01:29;13.30;99.90
37138;DHT22;26630;50.638;5.548;2022-09-17T18:03:58;13.30;99.90
37138;DHT22;26630;50.638;5.548;2022-09-17T18:06:25;13.30;99.90
37138;DHT22;26630;50.638;5.548;2022-09-17T18:08:53;13.20;99.90
37138;DHT22;26630;50.638;5.548;2022-09-17T18:11:20;13.20;99.90
37138;DHT22;26630;50.638;5.548;2022-09-17T18:13:51;13.20;99.90
37138;DHT22;26630;50.638;5.548;2022-09-17T18:16:19;13.20;99.90
37138;DHT22;26630;50.638;5.548;2022-09-17T18:18:46;13.20;99.90
37138;DHT22;26630;50.638;5.548;2022-09-17T18:21:15;13.20;99.90
37138;DHT22;26630;50.638;5.548;2022-09-17T18:23:42;13.20;99.90
37138;DHT22;26630;50.638;5.548;2022-09-17T18:26:11;13.10;99.90
37138;DHT22;26630;50.638;5.548;2022-09-17T18:28:39;13.10;99.90
37138;DHT22;26630;50.638;5.548;2022-09-17T18:31:06;13.10;99.90
37138;DHT22;26630;50.638;5.548;2022-09-17T18:33:34;13.10;99.90
37138;DHT22;26630;50.638;5.548;2022-09-17T18:36:03;13.10;99.90
37138;DHT22;26630;50.638;5.548;2022-09-17T18:38:32;13.10;99.90
37138;DHT22;26630;50.638;5.548;2022-09-17T18:41:04;13.10;99.90
37138;DHT22;26630;50.638;5.548;2022-09-17T18:43:34;13.10;99.90
37138;DHT22;26630;50.638;5.548;2022-09-17T18:46:02;13.10;99.90
37138;DHT22;26630;50.638;5.548;2022-09-17T18:48:29;13.10;99.90
37138;DHT22;26630;50.638;5.548;2022-09-17T18:51:09;13.10;99.90
37138;DHT22;26630;50.638;5.548;2022-09-17T18:53:36;13.10;99.90
37138;DHT22;26630;50.638;5.548;2022-09-17T18:56:06;13.10;99.90
37138;DHT22;26630;50.638;5.548;2022-09-17T18:58:34;13.10;99.90
37138;DHT22;26630;50.638;5.548;2022-09-17T19:03:35;13.10;99.90
37138;DHT22;26630;50.638;5.548;2022-09-17T19:06:02;13.10;99.90
37138;DHT22;26630;50.638;5.548;2022-09-17T19:08:30;13.10;99.90
37138;DHT22;26630;50.638;5.548;2022-09-17T19:10:57;13.10;99.90
37138;DHT22;26630;50.638;5.548;2022-09-17T19:13:24;13.10;99.90
37138;DHT22;26630;50.638;5.548;2022-09-17T19:15:56;13.10;99.90
37138;DHT22;26630;50.638;5.548;2022-09-17T19:18:24;13.10;99.90
37138;DHT22;26630;50.638;5.548;2022-09-17T19:20:51;13.10;99.90
37138;DHT22;26630;50.638;5.548;2022-09-17T19:23:18;13.10;99.90
37138;DHT22;26630;50.638;5.548;2022-09-17T19:25:45;13.10;99.90
37138;DHT22;26630;50.638;5.548;2022-09-17T19:28:12;13.10;99.90
37138;DHT22;26630;50.638;5.548;2022-09-17T19:30:39;13.10;99.90
37138;DHT22;26630;50.638;5.548;2022-09-17T19:33:06;13.10;99.90
37138;DHT22;26630;50.638;5.548;2022-09-17T19:35:33;13.10;99.90
37138;DHT22;26630;50.638;5.548;2022-09-17T19:38:00;13.10;99.90
37138;DHT22;26630;50.638;5.548;2022-09-17T19:40:27;13.10;99.90
37138;DHT22;26630;50.638;5.548;2022-09-17T19:42:54;13.10;99.90
37138;DHT22;26630;50.638;5.548;2022-09-17T19:45:22;13.10;99.90
37138;DHT22;26630;50.638;5.548;2022-09-17T19:47:49;13.10;99.90
37138;DHT22;26630;50.638;5.548;2022-09-17T19:50:17;13.10;99.90
37138;DHT22;26630;50.638;5.548;2022-09-17T19:52:44;13.10;99.90
37138;DHT22;26630;50.638;5.548;2022-09-17T19:55:12;13.10;99.90
37138;DHT22;26630;50.638;5.548;2022-09-17T19:57:40;13.10;99.90
37138;DHT22;26630;50.638;5.548;2022-09-17T20:00:07;13.10;99.90
37138;DHT22;26630;50.638;5.548;2022-09-17T20:02:39;13.10;99.90
37138;DHT22;26630;50.638;5.548;2022-09-17T20:05:06;13.00;99.90
37138;DHT22;26630;50.638;5.548;2022-09-17T20:07:34;13.00;99.90
37138;DHT22;26630;50.638;5.548;2022-09-17T20:10:01;13.00;99.90
37138;DHT22;26630;50.638;5.548;2022-09-17T20:12:28;13.00;99.90
37138;DHT22;26630;50.638;5.548;2022-09-17T20:14:55;13.10;99.90
37138;DHT22;26630;50.638;5.548;2022-09-17T20:17:25;13.00;99.90
37138;DHT22;26630;50.638;5.548;2022-09-17T20:19:52;13.00;99.90
37138;DHT22;26630;50.638;5.548;2022-09-17T20:22:19;13.00;99.90
37138;DHT22;26630;50.638;5.548;2022-09-17T20:24:48;13.00;99.90
37138;DHT22;26630;50.638;5.548;2022-09-17T20:27:17;13.00;99.90
37138;DHT22;26630;50.638;5.548;2022-09-17T20:29:44;13.00;99.90
37138;DHT22;26630;50.638;5.548;2022-09-17T20:32:13;13.00;99.90
37138;DHT22;26630;50.638;5.548;2022-09-17T20:34:40;13.00;99.90
37138;DHT22;26630;50.638;5.548;2022-09-17T20:37:07;13.00;99.90
37138;DHT22;26630;50.638;5.548;2022-09-17T20:39:39;13.00;99.90
37138;DHT22;26630;50.638;5.548;2022-09-17T20:42:06;13.00;99.90
37138;DHT22;26630;50.638;5.548;2022-09-17T20:44:33;13.00;99.90
37138;DHT22;26630;50.638;5.548;2022-09-17T20:47:00;13.00;99.90
37138;DHT22;26630;50.638;5.548;2022-09-17T20:49:28;13.00;99.90
37138;DHT22;26630;50.638;5.548;2022-09-17T20:51:55;13.00;99.90
37138;DHT22;26630;50.638;5.548;2022-09-17T20:54:23;12.90;99.90
37138;DHT22;26630;50.638;5.548;2022-09-17T20:56:50;13.00;99.90
37138;DHT22;26630;50.638;5.548;2022-09-17T20:59:17;12.90;99.90
37138;DHT22;26630;50.638;5.548;2022-09-17T21:01:45;13.00;99.90
37138;DHT22;26630;50.638;5.548;2022-09-17T21:04:14;12.90;99.90
37138;DHT22;26630;50.638;5.548;2022-09-17T21:06:41;13.00;99.90
37138;DHT22;26630;50.638;5.548;2022-09-17T21:09:09;12.90;99.90
37138;DHT22;26630;50.638;5.548;2022-09-17T21:11:38;12.90;99.90
37138;DHT22;26630;50.638;5.548;2022-09-17T21:14:05;13.00;99.90
37138;DHT22;26630;50.638;5.548;2022-09-17T21:16:32;12.90;99.90
37138;DHT22;26630;50.638;5.548;2022-09-17T21:19:01;13.00;99.90
37138;DHT22;26630;50.638;5.548;2022-09-17T21:21:28;12.90;99.90
37138;DHT22;26630;50.638;5.548;2022-09-17T21:23:59;12.90;99.90
37138;DHT22;26630;50.638;5.548;2022-09-17T21:26:27;12.90;99.90
37138;DHT22;26630;50.638;5.548;2022-09-17T21:28:54;12.90;99.90
37138;DHT22;26630;50.638;5.548;2022-09-17T21:31:23;12.90;99.90
37138;DHT22;26630;50.638;5.548;2022-09-17T21:33:58;12.90;99.90
37138;DHT22;26630;50.638;5.548;2022-09-17T21:36:26;12.90;99.90
37138;DHT22;26630;50.638;5.548;2022-09-17T21:38:55;12.90;99.90
37138;DHT22;26630;50.638;5.548;2022-09-17T21:41:23;12.90;99.90
37138;DHT22;26630;50.638;5.548;2022-09-17T21:43:50;12.90;99.90
37138;DHT22;26630;50.638;5.548;2022-09-17T21:46:19;12.90;99.90
37138;DHT22;26630;50.638;5.548;2022-09-17T21:48:48;12.90;99.90
37138;DHT22;26630;50.638;5.548;2022-09-17T21:53:42;12.90;99.90
37138;DHT22;26630;50.638;5.548;2022-09-17T21:56:13;12.90;99.90
37138;DHT22;26630;50.638;5.548;2022-09-17T21:58:41;12.90;99.90
37138;DHT22;26630;50.638;5.548;2022-09-17T22:01:13;12.90;99.90
37138;DHT22;26630;50.638;5.548;2022-09-17T22:03:41;12.90;99.90
37138;DHT22;26630;50.638;5.548;2022-09-17T22:06:09;12.90;99.90
37138;DHT22;26630;50.638;5.548;2022-09-17T22:08:37;12.90;99.90
37138;DHT22;26630;50.638;5.548;2022-09-17T22:11:09;12.90;99.90
37138;DHT22;26630;50.638;5.548;2022-09-17T22:13:36;12.90;99.90
37138;DHT22;26630;50.638;5.548;2022-09-17T22:16:05;12.90;99.90
37138;DHT22;26630;50.638;5.548;2022-09-17T22:18:33;12.90;99.90
37138;DHT22;26630;50.638;5.548;2022-09-17T22:21:22;12.90;99.90
37138;DHT22;26630;50.638;5.548;2022-09-17T22:23:49;12.90;99.90
37138;DHT22;26630;50.638;5.548;2022-09-17T22:26:17;12.80;99.90
37138;DHT22;26630;50.638;5.548;2022-09-17T22:28:45;12.80;99.90
37138;DHT22;26630;50.638;5.548;2022-09-17T22:31:12;12.90;99.90
37138;DHT22;26630;50.638;5.548;2022-09-17T22:33:40;12.90;99.90
37138;DHT22;26630;50.638;5.548;2022-09-17T22:36:11;12.90;99.90
37138;DHT22;26630;50.638;5.548;2022-09-17T22:38:39;12.90;99.90
37138;DHT22;26630;50.638;5.548;2022-09-17T22:41:08;12.90;99.90
37138;DHT22;26630;50.638;5.548;2022-09-17T22:43:37;12.90;99.90
37138;DHT22;26630;50.638;5.548;2022-09-17T22:46:39;12.90;99.90
37138;DHT22;26630;50.638;5.548;2022-09-17T22:48:58;12.80;99.90
37138;DHT22;26630;50.638;5.548;2022-09-17T22:51:26;12.90;99.90
37138;DHT22;26630;50.638;5.548;2022-09-17T22:53:55;12.90;99.90
37138;DHT22;26630;50.638;5.548;2022-09-17T22:56:22;12.90;99.90
37138;DHT22;26630;50.638;5.548;2022-09-17T22:58:49;12.90;99.90
37138;DHT22;26630;50.638;5.548;2022-09-17T23:01:18;12.90;99.90
37138;DHT22;26630;50.638;5.548;2022-09-17T23:03:46;12.90;99.90
37138;DHT22;26630;50.638;5.548;2022-09-17T23:06:16;12.90;99.90
37138;DHT22;26630;50.638;5.548;2022-09-17T23:08:43;12.80;99.90
37138;DHT22;26630;50.638;5.548;2022-09-17T23:13:50;12.90;99.90
37138;DHT22;26630;50.638;5.548;2022-09-17T23:16:17;12.80;99.90
37138;DHT22;26630;50.638;5.548;2022-09-17T23:18:45;12.80;99.90
37138;DHT22;26630;50.638;5.548;2022-09-17T23:21:13;12.90;99.90
37138;DHT22;26630;50.638;5.548;2022-09-17T23:23:41;12.80;99.90
37138;DHT22;26630;50.638;5.548;2022-09-17T23:26:13;12.80;99.90
37138;DHT22;26630;50.638;5.548;2022-09-17T23:28:43;12.80;99.90
37138;DHT22;26630;50.638;5.548;2022-09-17T23:31:14;12.80;99.90
37138;DHT22;26630;50.638;5.548;2022-09-17T23:33:43;12.80;99.90
37138;DHT22;26630;50.638;5.548;2022-09-17T23:36:20;12.80;99.90
37138;DHT22;26630;50.638;5.548;2022-09-17T23:38:48;12.80;99.90
37138;DHT22;26630;50.638;5.548;2022-09-17T23:43:52;12.80;99.90
37138;DHT22;26630;50.638;5.548;2022-09-17T23:46:20;12.70;99.90
37138;DHT22;26630;50.638;5.548;2022-09-17T23:48:47;12.70;99.90
37138;DHT22;26630;50.638;5.548;2022-09-17T23:51:14;12.70;99.90
37138;DHT22;26630;50.638;5.548;2022-09-17T23:53:44;12.70;99.90
37138;DHT22;26630;50.638;5.548;2022-09-17T23:56:12;12.70;99.90
37138;DHT22;26630;50.638;5.548;2022-09-17T23:58:40;12.70;99.90
